createdAt,value
2023-03-12T00:02:00.041Z,13.36
2023-03-12T00:04:27.225Z,13.30
2023-03-12T00:06:53.858Z,13.11
2023-03-12T00:09:20.449Z,14.32
2023-03-12T00:11:46.944Z,14.15
2023-03-12T00:14:13.498Z,14.00
2023-03-12T00:16:40.247Z,14.19
2023-03-12T00:19:06.767Z,13.72
2023-03-12T00:21:33.380Z,13.85
2023-03-12T00:23:59.862Z,15.61
2023-03-12T00:26:26.370Z,15.94
2023-03-12T00:28:52.862Z,14.68
2023-03-12T00:31:25.641Z,13.96
2023-03-12T00:33:52.280Z,14.65
2023-03-12T00:36:21.645Z,14.32
2023-03-12T00:38:48.169Z,14.55
2023-03-12T00:41:14.620Z,17.09
2023-03-12T00:43:41.106Z,17.59
2023-03-12T00:46:07.598Z,16.27
2023-03-12T00:48:34.132Z,16.76
2023-03-12T00:51:00.619Z,16.02
2023-03-12T00:53:27.118Z,17.29
2023-03-12T00:55:53.604Z,17.05
2023-03-12T00:58:20.073Z,16.99
2023-03-12T01:00:46.613Z,17.52
2023-03-12T01:03:13.731Z,17.62
2023-03-12T01:05:40.302Z,17.33
2023-03-12T01:08:08.930Z,16.77
2023-03-12T01:10:36.893Z,17.10
2023-03-12T01:13:03.443Z,16.57
2023-03-12T01:15:30.062Z,17.08
2023-03-12T01:17:56.560Z,16.58
2023-03-12T01:20:23.338Z,15.92
2023-03-12T01:22:50.743Z,16.10
2023-03-12T01:25:17.412Z,17.30
2023-03-12T01:27:44.055Z,17.71
2023-03-12T01:30:11.394Z,17.75
2023-03-12T01:32:38.282Z,15.98
2023-03-12T01:35:05.515Z,13.92
2023-03-12T01:37:32.937Z,15.23
2023-03-12T01:39:59.573Z,17.73
2023-03-12T01:42:26.118Z,18.20
2023-03-12T01:44:57.274Z,15.37
2023-03-12T01:47:24.505Z,15.65
2023-03-12T01:49:54.191Z,17.24
2023-03-12T01:52:25.303Z,17.00
2023-03-12T01:54:59.729Z,16.34
2023-03-12T01:57:36.568Z,16.58
2023-03-12T02:00:13.175Z,16.05
2023-03-12T02:02:43.459Z,15.09
2023-03-12T02:05:34.740Z,14.40
2023-03-12T02:08:01.395Z,14.85
2023-03-12T02:10:27.895Z,14.66
2023-03-12T02:12:54.537Z,13.79
2023-03-12T02:15:21.458Z,12.64
2023-03-12T02:17:47.937Z,12.32
2023-03-12T02:20:25.244Z,11.77
2023-03-12T02:23:04.841Z,11.95
2023-03-12T02:25:46.132Z,11.53
2023-03-12T02:28:16.889Z,11.27
2023-03-12T02:30:48.374Z,11.35
2023-03-12T02:33:15.917Z,10.93
2023-03-12T02:35:43.079Z,10.50
2023-03-12T02:38:45.024Z,10.97
2023-03-12T02:41:22.583Z,10.72
2023-03-12T02:44:10.961Z,10.62
2023-03-12T02:46:43.500Z,10.08
2023-03-12T02:49:11.738Z,10.42
2023-03-12T02:51:38.852Z,13.95
2023-03-12T02:54:05.519Z,15.66
2023-03-12T02:56:32.075Z,17.20
2023-03-12T02:58:59.094Z,18.07
2023-03-12T03:01:25.837Z,18.63
2023-03-12T03:03:52.425Z,17.96
2023-03-12T03:06:18.960Z,18.19
2023-03-12T03:08:45.618Z,18.94
2023-03-12T03:11:12.880Z,18.74
2023-03-12T03:13:39.365Z,17.51
2023-03-12T03:16:06.257Z,16.39
2023-03-12T03:18:33.005Z,16.65
2023-03-12T03:21:05.802Z,16.19
2023-03-12T03:23:33.495Z,15.29
2023-03-12T03:26:00.181Z,15.89
2023-03-12T03:28:29.134Z,15.13
2023-03-12T03:30:58.246Z,15.64
2023-03-12T03:33:24.827Z,15.44
2023-03-12T03:35:51.367Z,15.17
2023-03-12T03:38:18.945Z,15.29
2023-03-12T03:40:45.594Z,15.14
2023-03-12T03:43:12.200Z,14.70
2023-03-12T03:45:38.793Z,14.04
2023-03-12T03:48:05.622Z,14.50
2023-03-12T03:50:32.130Z,15.14
2023-03-12T03:52:58.613Z,14.27
2023-03-12T03:55:25.110Z,14.20
2023-03-12T03:57:51.754Z,13.80
2023-03-12T04:00:18.502Z,13.24
2023-03-12T04:02:45.013Z,13.61
2023-03-12T04:05:11.802Z,13.52
2023-03-12T04:07:38.639Z,14.58
2023-03-12T04:10:05.754Z,13.87
2023-03-12T04:12:32.271Z,13.81
2023-03-12T04:14:58.761Z,14.01
2023-03-12T04:17:25.264Z,14.27
2023-03-12T04:19:51.761Z,13.15
2023-03-12T04:22:18.297Z,13.87
2023-03-12T04:24:44.851Z,17.34
2023-03-12T04:27:11.403Z,15.60
2023-03-12T04:29:37.917Z,15.06
2023-03-12T04:32:05.348Z,13.75
2023-03-12T04:34:31.824Z,13.26
2023-03-12T04:37:01.350Z,12.53
2023-03-12T04:39:27.941Z,11.84
2023-03-12T04:41:54.473Z,11.53
2023-03-12T04:44:21.012Z,10.96
2023-03-12T04:46:47.562Z,11.31
2023-03-12T04:49:14.089Z,10.52
2023-03-12T04:51:40.656Z,10.81
2023-03-12T04:54:07.195Z,10.77
2023-03-12T04:56:33.689Z,10.81
2023-03-12T04:59:00.226Z,10.64
2023-03-12T05:01:35.374Z,10.08
2023-03-12T05:04:03.007Z,10.76
2023-03-12T05:06:29.843Z,11.53
2023-03-12T05:08:56.434Z,11.32
2023-03-12T05:11:24.061Z,11.42
2023-03-12T05:13:50.733Z,10.60
2023-03-12T05:16:18.373Z,10.12
2023-03-12T05:18:45.663Z,10.44
2023-03-12T05:21:14.980Z,9.86
2023-03-12T05:23:41.919Z,10.01
2023-03-12T05:26:24.673Z,9.62
2023-03-12T05:28:52.365Z,9.53
2023-03-12T05:31:20.766Z,9.43
2023-03-12T05:33:48.625Z,9.47
2023-03-12T05:36:17.253Z,8.76
2023-03-12T05:38:43.804Z,9.17
2023-03-12T05:41:19.453Z,9.77
2023-03-12T05:43:45.924Z,9.55
2023-03-12T05:46:12.611Z,9.84
2023-03-12T05:48:39.182Z,9.91
2023-03-12T05:51:06.095Z,9.52
2023-03-12T05:53:32.764Z,9.27
2023-03-12T05:56:04.682Z,10.08
2023-03-12T05:58:32.141Z,10.78
2023-03-12T06:00:59.047Z,10.67
2023-03-12T06:03:25.656Z,10.21
2023-03-12T06:05:52.297Z,9.87
2023-03-12T06:08:18.789Z,9.76
2023-03-12T06:10:45.247Z,9.96
2023-03-12T06:13:11.763Z,9.28
2023-03-12T06:15:38.319Z,8.89
2023-03-12T06:18:05.058Z,9.34
2023-03-12T06:20:31.533Z,9.51
2023-03-12T06:22:58.008Z,9.72
2023-03-12T06:25:24.532Z,9.34
2023-03-12T06:27:51.142Z,9.44
2023-03-12T06:30:17.941Z,9.05
2023-03-12T06:32:44.417Z,9.08
2023-03-12T06:35:10.935Z,7.94
2023-03-12T06:37:37.434Z,7.98
2023-03-12T06:40:04.297Z,8.57
2023-03-12T06:42:30.785Z,9.65
2023-03-12T06:44:57.253Z,9.98
2023-03-12T06:47:23.728Z,10.12
2023-03-12T06:49:50.203Z,10.22
2023-03-12T06:52:16.689Z,10.20
2023-03-12T06:54:43.309Z,10.83
2023-03-12T06:57:09.819Z,10.86
2023-03-12T06:59:36.362Z,11.40
2023-03-12T07:02:02.957Z,11.50
2023-03-12T07:04:29.555Z,11.62
2023-03-12T07:06:56.051Z,11.78
2023-03-12T07:09:22.795Z,11.71
2023-03-12T07:11:49.319Z,11.67
2023-03-12T07:14:15.807Z,11.79
2023-03-12T07:16:45.175Z,11.76
2023-03-12T07:19:11.703Z,11.21
2023-03-12T07:21:38.189Z,9.50
2023-03-12T07:24:04.985Z,9.54
2023-03-12T07:26:31.575Z,9.23
2023-03-12T07:28:58.074Z,7.09
2023-03-12T07:31:24.571Z,8.44
2023-03-12T07:33:51.143Z,7.38
2023-03-12T07:36:17.820Z,6.61
2023-03-12T07:38:44.408Z,7.30
2023-03-12T07:41:10.964Z,6.57
2023-03-12T07:43:37.626Z,5.46
2023-03-12T07:46:04.240Z,5.47
2023-03-12T07:48:30.782Z,5.21
2023-03-12T07:50:57.283Z,5.14
2023-03-12T07:53:23.781Z,4.53
2023-03-12T07:55:50.456Z,4.59
2023-03-12T07:58:17.394Z,4.84
2023-03-12T08:00:44.400Z,4.39
2023-03-12T08:03:11.806Z,4.19
2023-03-12T08:05:39.107Z,4.36
2023-03-12T08:08:06.259Z,3.66
2023-03-12T08:10:32.849Z,3.19
2023-03-12T08:12:59.409Z,2.97
2023-03-12T08:15:25.918Z,3.21
2023-03-12T08:17:52.451Z,3.30
2023-03-12T08:20:18.943Z,3.28
2023-03-12T08:22:45.389Z,3.45
2023-03-12T08:25:11.938Z,3.30
2023-03-12T08:27:38.394Z,3.29
2023-03-12T08:30:06.789Z,3.34
2023-03-12T08:32:33.567Z,3.99
2023-03-12T08:35:00.283Z,3.90
2023-03-12T08:37:26.771Z,4.04
2023-03-12T08:39:53.392Z,3.82
2023-03-12T08:42:23.004Z,3.59
2023-03-12T08:44:49.473Z,3.96
2023-03-12T08:47:15.983Z,3.92
2023-03-12T08:49:42.477Z,3.75
2023-03-12T08:52:08.940Z,3.95
2023-03-12T08:54:35.458Z,4.32
2023-03-12T08:57:01.937Z,4.12
2023-03-12T08:59:28.448Z,3.85
2023-03-12T09:01:54.917Z,3.93
2023-03-12T09:04:21.472Z,3.34
2023-03-12T09:06:47.977Z,2.95
2023-03-12T09:09:14.641Z,2.73
2023-03-12T09:11:41.331Z,2.78
2023-03-12T09:14:57.615Z,3.45
2023-03-12T09:16:54.834Z,2.95
2023-03-12T09:19:21.402Z,2.99
2023-03-12T09:21:47.984Z,2.92
2023-03-12T09:24:14.502Z,3.02
2023-03-12T09:26:41.142Z,2.66
2023-03-12T09:29:07.604Z,3.18
2023-03-12T09:31:34.676Z,3.30
2023-03-12T09:34:01.147Z,3.15
2023-03-12T09:36:28.210Z,2.96
2023-03-12T09:38:55.180Z,2.92
2023-03-12T09:41:28.679Z,2.65
2023-03-12T09:44:21.180Z,2.46
2023-03-12T09:46:56.515Z,2.40
2023-03-12T09:49:35.117Z,2.85
2023-03-12T09:52:13.000Z,2.87
2023-03-12T09:54:54.692Z,2.74
2023-03-12T09:57:25.673Z,2.85
2023-03-12T09:59:53.309Z,2.57
2023-03-12T10:02:25.539Z,2.55
2023-03-12T10:05:11.579Z,3.12
2023-03-12T10:07:50.411Z,3.33
2023-03-12T10:10:25.045Z,3.15
2023-03-12T10:13:16.838Z,2.82
2023-03-12T10:16:04.917Z,2.65
2023-03-12T10:18:42.537Z,2.77
2023-03-12T10:21:49.764Z,2.04
2023-03-12T10:24:25.558Z,2.17
2023-03-12T10:26:57.114Z,2.26
2023-03-12T10:29:30.803Z,2.14
2023-03-12T10:32:26.287Z,1.94
2023-03-12T10:34:58.629Z,1.65
2023-03-12T10:37:31.316Z,1.82
2023-03-12T10:39:57.842Z,1.77
2023-03-12T10:42:27.530Z,1.54
2023-03-12T10:45:09.340Z,1.60
2023-03-12T10:47:41.222Z,1.72
2023-03-12T10:50:23.756Z,1.48
2023-03-12T10:52:54.078Z,1.49
2023-03-12T10:55:29.716Z,1.30
2023-03-12T10:57:57.337Z,1.35
2023-03-12T11:00:27.368Z,1.45
2023-03-12T11:02:59.229Z,1.50
2023-03-12T11:05:33.179Z,1.33
2023-03-12T11:08:01.879Z,1.39
2023-03-12T11:10:43.669Z,1.40
2023-03-12T11:13:31.368Z,1.45
2023-03-12T11:16:10.121Z,1.38
2023-03-12T11:18:37.642Z,1.33
2023-03-12T11:21:09.810Z,1.15
2023-03-12T11:23:40.380Z,1.17
2023-03-12T11:26:17.139Z,1.20
2023-03-12T11:28:48.897Z,1.29
2023-03-12T11:31:41.290Z,1.19
2023-03-12T11:34:20.575Z,1.27
2023-03-12T11:37:15.144Z,1.24
2023-03-12T11:39:51.609Z,1.43
2023-03-12T11:42:31.831Z,1.29
2023-03-12T11:45:06.212Z,1.15
2023-03-12T11:48:03.499Z,1.30
2023-03-12T11:50:48.653Z,1.18
2023-03-12T11:53:23.967Z,1.27
2023-03-12T11:55:53.438Z,1.26
2023-03-12T11:58:44.839Z,1.21
2023-03-12T12:01:35.917Z,1.19
2023-03-12T12:04:45.248Z,1.25
2023-03-12T12:07:45.132Z,1.12
2023-03-12T12:10:35.665Z,1.12
2023-03-12T12:13:32.948Z,1.41
2023-03-12T12:16:40.180Z,1.80
2023-03-12T12:19:31.525Z,1.90
2023-03-12T12:22:06.612Z,1.83
2023-03-12T12:24:51.980Z,1.71
2023-03-12T12:27:26.427Z,2.23
2023-03-12T12:30:11.297Z,2.47
2023-03-12T12:33:19.004Z,2.56
2023-03-12T12:35:46.160Z,1.99
2023-03-12T12:38:40.595Z,1.98
2023-03-12T12:41:17.559Z,2.26
2023-03-12T12:43:49.147Z,2.50
2023-03-12T12:46:43.854Z,2.44
2023-03-12T12:49:19.549Z,2.08
2023-03-12T12:51:56.926Z,2.05
2023-03-12T12:54:44.842Z,2.31
2023-03-12T12:57:14.139Z,2.42
2023-03-12T13:00:08.511Z,2.13
2023-03-12T13:02:42.946Z,2.32
2023-03-12T13:05:20.282Z,2.58
2023-03-12T13:07:46.892Z,2.52
2023-03-12T13:10:35.085Z,2.28
2023-03-12T13:13:11.912Z,2.27
2023-03-12T13:15:41.722Z,2.47
2023-03-12T13:18:22.408Z,2.22
2023-03-12T13:20:51.842Z,2.03
2023-03-12T13:23:42.751Z,2.01
2023-03-12T13:26:26.537Z,1.92
2023-03-12T13:28:56.752Z,1.84
2023-03-12T13:31:29.247Z,1.76
2023-03-12T13:34:19.514Z,2.13
2023-03-12T13:36:51.791Z,1.87
2023-03-12T13:39:30.387Z,2.25
2023-03-12T13:41:58.873Z,1.71
2023-03-12T13:44:28.061Z,1.74
2023-03-12T13:47:05.479Z,1.52
2023-03-12T13:49:53.581Z,1.70
2023-03-12T13:52:29.877Z,1.45
2023-03-12T13:55:01.780Z,1.55
2023-03-12T13:57:51.179Z,1.44
2023-03-12T14:00:31.406Z,1.50
2023-03-12T14:03:03.556Z,1.44
2023-03-12T14:05:46.331Z,1.77
2023-03-12T14:09:00.127Z,1.71
2023-03-12T14:11:54.583Z,1.69
2023-03-12T14:14:43.020Z,2.24
2023-03-12T14:17:21.242Z,1.96
2023-03-12T14:19:57.201Z,1.61
2023-03-12T14:22:28.365Z,1.30
2023-03-12T14:24:59.328Z,1.42
2023-03-12T14:27:30.488Z,1.37
2023-03-12T14:30:10.154Z,1.33
2023-03-12T14:32:38.557Z,1.55
2023-03-12T14:35:22.812Z,1.53
2023-03-12T14:38:12.126Z,1.52
2023-03-12T14:40:46.655Z,1.73
2023-03-12T14:43:23.265Z,1.66
2023-03-12T14:45:51.870Z,1.79
2023-03-12T14:48:23.737Z,1.72
2023-03-12T14:50:50.738Z,1.78
2023-03-12T14:53:30.360Z,1.70
2023-03-12T14:56:12.988Z,1.67
2023-03-12T14:58:48.411Z,1.78
2023-03-12T15:01:20.528Z,1.59
2023-03-12T15:03:52.425Z,1.64
2023-03-12T15:06:28.939Z,1.56
2023-03-12T15:08:56.589Z,1.61
2023-03-12T15:11:27.487Z,1.69
2023-03-12T15:14:01.503Z,1.62
2023-03-12T15:16:28.414Z,1.40
2023-03-12T15:18:56.819Z,1.70
2023-03-12T15:21:24.492Z,1.67
2023-03-12T15:23:51.211Z,1.64
2023-03-12T15:26:20.711Z,1.53
2023-03-12T15:28:58.365Z,1.56
2023-03-12T15:31:25.263Z,1.61
2023-03-12T15:34:04.685Z,1.53
2023-03-12T15:36:33.879Z,1.51
2023-03-12T15:39:20.061Z,1.42
2023-03-12T15:41:48.945Z,1.56
2023-03-12T15:44:28.207Z,1.46
2023-03-12T15:47:05.723Z,1.57
2023-03-12T15:49:36.826Z,1.55
2023-03-12T15:52:18.622Z,1.47
2023-03-12T15:55:03.957Z,1.59
2023-03-12T15:57:32.306Z,1.81
2023-03-12T16:00:10.975Z,1.53
2023-03-12T16:02:46.026Z,1.63
2023-03-12T16:05:12.970Z,1.45
2023-03-12T16:07:39.527Z,1.46
2023-03-12T16:10:11.032Z,1.56
2023-03-12T16:12:37.931Z,1.50
2023-03-12T16:15:04.874Z,1.49
2023-03-12T16:17:31.572Z,1.58
2023-03-12T16:19:58.042Z,1.50
2023-03-12T16:22:24.500Z,1.40
2023-03-12T16:24:51.102Z,1.45
2023-03-12T16:27:23.739Z,1.58
2023-03-12T16:29:58.398Z,1.70
2023-03-12T16:32:24.928Z,1.60
2023-03-12T16:34:51.432Z,1.67
2023-03-12T16:37:17.909Z,1.69
2023-03-12T16:39:44.404Z,1.62
2023-03-12T16:42:24.944Z,1.75
2023-03-12T16:44:51.557Z,1.57
2023-03-12T16:47:18.128Z,1.84
2023-03-12T16:49:44.748Z,2.12
2023-03-12T16:52:23.090Z,2.06
2023-03-12T16:54:50.932Z,1.79
2023-03-12T16:57:36.639Z,1.75
2023-03-12T17:00:07.540Z,1.75
2023-03-12T17:02:35.374Z,1.76
2023-03-12T17:05:01.859Z,1.95
2023-03-12T17:07:28.455Z,2.00
2023-03-12T17:09:55.325Z,2.07
2023-03-12T17:12:33.307Z,2.22
2023-03-12T17:15:03.061Z,1.95
2023-03-12T17:17:29.613Z,1.87
2023-03-12T17:19:56.133Z,1.86
2023-03-12T17:22:22.589Z,1.72
2023-03-12T17:24:49.035Z,2.52
2023-03-12T17:27:15.628Z,2.41
2023-03-12T17:29:42.305Z,2.57
2023-03-12T17:32:08.824Z,1.62
2023-03-12T17:34:36.832Z,1.91
2023-03-12T17:37:03.408Z,1.87
2023-03-12T17:39:30.237Z,2.02
2023-03-12T17:41:56.737Z,1.79
2023-03-12T17:44:23.991Z,1.59
2023-03-12T17:46:59.042Z,1.84
2023-03-12T17:49:26.696Z,1.72
2023-03-12T17:51:53.376Z,1.90
2023-03-12T17:54:19.876Z,1.85
2023-03-12T17:56:46.404Z,2.06
2023-03-12T17:59:12.892Z,2.02
2023-03-12T18:01:39.406Z,2.10
2023-03-12T18:04:05.990Z,2.43
2023-03-12T18:06:32.440Z,2.07
2023-03-12T18:08:58.913Z,2.38
2023-03-12T18:11:25.506Z,2.02
2023-03-12T18:13:51.998Z,2.14
2023-03-12T18:16:18.581Z,2.05
2023-03-12T18:18:45.111Z,2.12
2023-03-12T18:21:11.596Z,2.38
2023-03-12T18:23:38.082Z,2.28
2023-03-12T18:26:04.728Z,22.12
2023-03-12T18:28:31.228Z,20.09
2023-03-12T18:30:57.762Z,9.01
2023-03-12T18:33:24.286Z,5.45
2023-03-12T18:35:52.534Z,6.25
2023-03-12T18:38:20.745Z,4.77
2023-03-12T18:40:47.234Z,4.17
2023-03-12T18:43:13.729Z,4.87
2023-03-12T18:45:43.583Z,5.71
2023-03-12T18:48:10.595Z,6.66
2023-03-12T18:50:37.074Z,6.25
2023-03-12T18:53:03.523Z,6.05
2023-03-12T18:55:30.011Z,5.34
2023-03-12T18:57:56.508Z,5.29
2023-03-12T19:00:23.095Z,5.25
2023-03-12T19:02:49.602Z,5.04
2023-03-12T19:05:16.430Z,5.26
2023-03-12T19:07:43.879Z,4.70
2023-03-12T19:10:11.887Z,4.04
2023-03-12T19:12:50.772Z,3.91
2023-03-12T19:15:19.102Z,4.04
2023-03-12T19:17:45.571Z,3.79
2023-03-12T19:20:12.494Z,3.70
2023-03-12T19:22:38.996Z,3.92
2023-03-12T19:25:06.113Z,3.94
2023-03-12T19:27:32.594Z,3.81
2023-03-12T19:29:59.143Z,4.94
2023-03-12T19:32:33.092Z,5.17
2023-03-12T19:35:09.119Z,3.51
2023-03-12T19:37:35.651Z,3.00
2023-03-12T19:40:02.158Z,2.65
2023-03-12T19:42:28.664Z,2.83
2023-03-12T19:44:55.122Z,3.34
2023-03-12T19:47:21.677Z,2.78
2023-03-12T19:49:48.136Z,2.91
2023-03-12T19:52:14.664Z,2.81
2023-03-12T19:54:41.187Z,3.37
2023-03-12T19:57:07.656Z,3.10
2023-03-12T19:59:34.152Z,2.99
2023-03-12T20:02:00.634Z,3.03
2023-03-12T20:04:27.769Z,3.32
2023-03-12T20:06:54.300Z,2.73
2023-03-12T20:09:20.838Z,2.97
2023-03-12T20:11:47.364Z,2.97
2023-03-12T20:14:13.853Z,2.87
2023-03-12T20:16:40.334Z,3.04
2023-03-12T20:19:06.820Z,3.07
2023-03-12T20:21:33.325Z,3.22
2023-03-12T20:24:00.083Z,3.22
2023-03-12T20:26:26.559Z,3.52
2023-03-12T20:28:53.017Z,3.41
2023-03-12T20:31:19.812Z,3.47
2023-03-12T20:33:46.332Z,3.31
2023-03-12T20:36:14.055Z,3.26
2023-03-12T20:38:41.030Z,3.81
2023-03-12T20:41:14.392Z,3.34
2023-03-12T20:43:42.347Z,3.30
2023-03-12T20:46:09.977Z,3.12
2023-03-12T20:48:36.461Z,2.69
2023-03-12T20:51:03.017Z,3.42
2023-03-12T20:53:29.862Z,3.40
2023-03-12T20:55:57.362Z,3.16
2023-03-12T20:58:24.046Z,3.50
2023-03-12T21:00:50.905Z,3.38
2023-03-12T21:03:18.168Z,3.10
2023-03-12T21:05:55.144Z,3.13
2023-03-12T21:08:22.824Z,3.13
2023-03-12T21:10:49.348Z,2.86
2023-03-12T21:13:17.363Z,2.96
2023-03-12T21:15:44.273Z,3.55
2023-03-12T21:18:10.966Z,3.52
2023-03-12T21:20:39.549Z,3.73
2023-03-12T21:23:07.199Z,4.06
2023-03-12T21:25:37.097Z,4.25
2023-03-12T21:28:07.376Z,4.41
2023-03-12T21:30:34.463Z,4.16
2023-03-12T21:33:02.567Z,4.56
2023-03-12T21:35:29.396Z,4.35
2023-03-12T21:37:55.973Z,4.25
2023-03-12T21:40:23.740Z,4.29
2023-03-12T21:42:50.323Z,3.95
2023-03-12T21:45:18.995Z,3.42
2023-03-12T21:47:45.479Z,4.16
2023-03-12T21:50:11.960Z,4.15
2023-03-12T21:52:40.013Z,3.85
2023-03-12T21:55:08.740Z,4.02
2023-03-12T21:57:35.514Z,4.13
2023-03-12T22:00:02.138Z,4.29
2023-03-12T22:02:28.597Z,3.87
2023-03-12T22:04:55.103Z,3.10
2023-03-12T22:07:21.641Z,3.32
2023-03-12T22:09:48.121Z,3.71
2023-03-12T22:12:14.646Z,4.06
2023-03-12T22:14:41.146Z,3.62
2023-03-12T22:17:07.630Z,2.74
2023-03-12T22:19:34.105Z,2.80
2023-03-12T22:22:00.549Z,2.85
2023-03-12T22:24:27.049Z,3.02
2023-03-12T22:26:53.485Z,3.03
2023-03-12T22:29:19.981Z,3.23
2023-03-12T22:31:46.461Z,3.00
2023-03-12T22:34:17.215Z,2.94
2023-03-12T22:36:43.778Z,2.77
2023-03-12T22:39:10.251Z,2.75
2023-03-12T22:41:36.736Z,2.56
2023-03-12T22:44:07.930Z,2.47
2023-03-12T22:46:35.114Z,3.07
2023-03-12T22:49:03.887Z,2.50
2023-03-12T22:51:32.331Z,2.67
2023-03-12T22:53:58.957Z,2.99
2023-03-12T22:56:25.894Z,2.62
2023-03-12T22:58:52.377Z,2.46
2023-03-12T23:01:21.480Z,2.67
2023-03-12T23:03:48.475Z,2.72
2023-03-12T23:06:21.133Z,2.74
2023-03-12T23:08:48.167Z,2.87
2023-03-12T23:11:16.300Z,2.88
2023-03-12T23:13:45.518Z,3.08
2023-03-12T23:16:16.700Z,3.35
2023-03-12T23:18:43.505Z,3.29
2023-03-12T23:21:19.263Z,3.23
2023-03-12T23:23:47.066Z,3.36
2023-03-12T23:26:22.242Z,3.29
2023-03-12T23:28:49.216Z,3.43
2023-03-12T23:31:16.357Z,3.34
2023-03-12T23:33:43.462Z,3.20
2023-03-12T23:36:16.306Z,3.17
2023-03-12T23:38:43.472Z,3.18
2023-03-12T23:41:15.917Z,2.98
2023-03-12T23:43:43.420Z,3.17
2023-03-12T23:46:13.733Z,3.23
2023-03-12T23:48:41.214Z,3.13
2023-03-12T23:51:20.012Z,3.08
2023-03-12T23:53:50.085Z,3.09
2023-03-12T23:56:19.674Z,2.93
2023-03-12T23:58:47.141Z,2.89
